Ward Prairie, Texas
Current Conditions -  °F | °C
As of 5:53 AM on Tuesday 27 Jan 2015 (Local Time) from KCRS Reporting Station
Clear Clear  
Wind Chill: 41°   Ceiling: Unl
Heat Index: 45°   Visibility: 10mi
Dew Point: 38°   Wind: 7mph
Humidity: 76%   Direction: 260°W
Pressure: 30.1"   Gusts: NA
Location:  31.8162°N, 96.1239°W
Report Text: KCRS 271153Z AUTO 26006KT 10SM CLR 07/03 A3010 RMK AO2 SLP192 T00720033 10122 20067 53003
Loading
Personal Weather Stations






























Interactive Weather Map New forecast layout! Learn more

10-Day Weather Forecast

Advertisements
Track Severe Weather on mobile